Time;durP1;ratioP1;P1;durP2;ratioP2;P2;SDS_P1;SDS_P2;PMS_P1;PMS_P2;Temp;Humidity;BMP_temperature;BMP_pressure;BME280_temperature;BME280_humidity;BME280_pressure;Samples;Min_cycle;Max_cycle;Signal;HPM_P1;HPM_P2
2022/12/28 00:01:22;;;;;;;33.20;17.37;;;;;;;-0.92;84.83;101590.33;1391954;89;21729;-87
2022/12/28 00:03:50;;;;;;;39.17;17.40;;;;;;;-0.97;85.30;101587.00;1545954;89;21751;-89
2022/12/28 00:06:17;;;;;;;36.13;16.77;;;;;;;-1.01;85.49;101589.27;1386439;89;22570;-87
2022/12/28 00:08:43;;;;;;;38.53;18.87;;;;;;;-1.02;85.64;101603.63;1545190;89;21628;-89
2022/12/28 00:11:16;;;;;;;41.25;20.50;;;;;;;-1.07;85.75;101598.55;1387608;89;21888;-83
2022/12/28 00:13:43;;;;;;;53.93;24.87;;;;;;;-1.06;85.73;101602.87;1383488;92;22247;-85
2022/12/28 00:16:26;;;;;;;69.83;26.03;;;;;;;-1.05;85.74;101605.02;1392924;89;21635;-86
2022/12/28 00:18:54;;;;;;;40.52;16.95;;;;;;;-1.03;85.75;101605.83;1546102;89;22514;-89
2022/12/28 00:21:21;;;;;;;38.28;16.85;;;;;;;-1.05;86.26;101603.27;1386532;89;21361;-88
2022/12/28 00:23:52;;;;;;;30.27;14.53;;;;;;;-1.08;86.54;101605.95;1376107;90;21345;-89
2022/12/28 00:26:19;;;;;;;26.95;14.75;;;;;;;-1.14;86.40;101619.13;1528876;89;22066;-86
2022/12/28 00:28:45;;;;;;;26.40;13.97;;;;;;;-1.19;86.35;101618.39;1538198;89;21375;-87
2022/12/28 00:31:12;;;;;;;29.25;15.03;;;;;;;-1.23;86.11;101622.83;1546034;89;22156;-87
2022/12/28 00:33:39;;;;;;;34.13;14.60;;;;;;;-1.28;86.07;101622.11;1387083;89;21316;-88
2022/12/28 00:36:06;;;;;;;34.43;17.80;;;;;;;-1.30;86.37;101619.14;1457176;89;23376;-88
2022/12/28 00:38:37;;;;;;;33.77;16.63;;;;;;;-1.34;86.41;101623.58;1466123;89;21589;-86
2022/12/28 00:41:04;;;;;;;27.45;14.95;;;;;;;-1.38;87.81;101623.27;1546135;89;22017;-88
2022/12/28 00:43:31;;;;;;;25.75;13.68;;;;;;;-1.45;88.18;101624.31;1454846;89;21486;-85
2022/12/28 00:45:58;;;;;;;31.23;15.25;;;;;;;-1.51;87.55;101626.63;1462735;89;21692;-86
2022/12/28 00:48:25;;;;;;;27.10;15.40;;;;;;;-1.54;87.48;101635.80;1461944;89;22410;-87
2022/12/28 00:50:51;;;;;;;25.55;12.37;;;;;;;-1.57;87.40;101639.78;1468125;89;22394;-88
2022/12/28 00:53:18;;;;;;;26.35;12.43;;;;;;;-1.60;87.47;101645.05;1462208;89;22433;-90
2022/12/28 00:55:44;;;;;;;23.85;13.50;;;;;;;-1.62;87.54;101639.04;1459857;89;21448;-87
2022/12/28 00:58:15;;;;;;;29.30;13.90;;;;;;;-1.59;88.05;101643.70;1461600;89;21486;-90
2022/12/28 01:00:42;;;;;;;29.92;14.30;;;;;;;-1.57;87.84;101636.34;1462064;89;21729;-88
2022/12/28 01:03:08;;;;;;;33.45;16.15;;;;;;;-1.54;87.82;101634.50;1463740;89;21419;-87
2022/12/28 01:05:38;;;;;;;31.82;16.50;;;;;;;-1.52;87.79;101636.63;1447981;89;21426;-88
2022/12/28 01:08:05;;;;;;;29.30;13.35;;;;;;;-1.50;87.89;101633.52;1435237;89;22527;-89
2022/12/28 01:10:31;;;;;;;28.57;15.18;;;;;;;-1.45;87.93;101631.66;1461568;89;21582;-87
2022/12/28 01:12:57;;;;;;;26.12;13.95;;;;;;;-1.41;88.20;101624.20;1456881;89;21426;-88
2022/12/28 01:15:23;;;;;;;27.30;13.53;;;;;;;-1.34;88.10;101629.22;1445768;89;21456;-85
2022/12/28 01:17:49;;;;;;;21.25;12.70;;;;;;;-1.31;88.08;101639.53;1462996;89;22048;-88
2022/12/28 01:20:16;;;;;;;24.25;13.68;;;;;;;-1.29;87.90;101632.55;1456477;89;22322;-87
2022/12/28 01:22:42;;;;;;;24.72;13.58;;;;;;;-1.29;87.83;101635.15;1464281;89;21633;-86
2022/12/28 01:25:09;;;;;;;25.17;12.33;;;;;;;-1.31;87.69;101635.18;1455672;89;21477;-85
2022/12/28 01:27:35;;;;;;;25.88;12.10;;;;;;;-1.33;87.51;101630.46;1451269;89;21640;-88
2022/12/28 01:30:01;;;;;;;29.18;14.93;;;;;;;-1.31;87.69;101629.14;1468535;89;21419;-87
2022/12/28 01:32:27;;;;;;;26.62;13.45;;;;;;;-1.29;87.82;101628.20;1471315;89;22270;-87
2022/12/28 01:34:54;;;;;;;26.87;12.88;;;;;;;-1.29;87.72;101631.25;1465567;89;21463;-85
2022/12/28 01:37:20;;;;;;;29.10;13.48;;;;;;;-1.31;87.71;101629.14;1470166;89;21540;-88
2022/12/28 01:39:46;;;;;;;29.92;14.73;;;;;;;-1.29;87.79;101629.95;1468390;89;21426;-88
2022/12/28 01:42:18;;;;;;;30.37;14.07;;;;;;;-1.29;88.25;101627.36;1461854;89;21611;-87
2022/12/28 01:44:48;;;;;;;35.73;15.43;;;;;;;-1.28;88.23;101627.75;1454815;89;21716;-88
2022/12/28 01:47:28;;;;;;;24.83;12.80;;;;;;;-1.23;88.18;101628.48;1456998;89;22265;-88
2022/12/28 01:50:10;;;;;;;28.83;13.10;;;;;;;-1.20;88.15;101627.09;1446604;89;22755;-88
2022/12/28 01:52:54;;;;;;;25.80;13.47;;;;;;;-1.19;88.05;101620.54;1465490;89;21514;-88
2022/12/28 01:55:30;;;;;;;31.17;15.50;;;;;;;-1.18;88.05;101611.88;1456156;88;21701;-89
2022/12/28 01:58:08;;;;;;;25.90;13.47;;;;;;;-1.20;88.08;101619.30;1464148;89;22166;-87
2022/12/28 02:00:35;;;;;;;24.32;13.55;;;;;;;-1.22;88.14;101627.13;1465746;89;22177;-91
2022/12/28 02:03:12;;;;;;;25.60;12.57;;;;;;;-1.26;88.24;101618.18;1461708;89;22595;-89
2022/12/28 02:05:47;;;;;;;29.55;12.45;;;;;;;-1.28;88.45;101622.55;1461518;89;22008;-89
2022/12/28 02:08:34;;;;;;;22.65;11.28;;;;;;;-1.28;88.68;101622.55;1458287;88;22351;-87
2022/12/28 02:11:01;;;;;;;18.73;10.63;;;;;;;-1.28;88.58;101623.86;1464178;88;22091;-84
2022/12/28 02:13:27;;;;;;;22.07;11.57;;;;;;;-1.24;88.62;101634.55;1450765;89;22308;-88
2022/12/28 02:15:53;;;;;;;19.47;10.93;;;;;;;-1.25;88.58;101631.11;1458541;89;21426;-87
2022/12/28 02:18:21;;;;;;;19.65;10.40;;;;;;;-1.24;88.65;101635.39;1464280;89;22127;-87
2022/12/28 02:21:08;;;;;;;19.60;10.48;;;;;;;-1.25;88.69;101626.37;1460370;89;21448;-88
2022/12/28 02:23:55;;;;;;;16.67;10.43;;;;;;;-1.25;88.62;101623.77;1461782;88;21492;-88
2022/12/28 02:26:52;;;;;;;22.67;10.43;;;;;;;-1.25;88.65;101628.96;1457064;89;21574;-90
2022/12/28 02:29:54;;;;;;;21.23;12.20;;;;;;;-1.28;88.45;101629.05;1461640;89;21544;-86
2022/12/28 02:32:29;;;;;;;20.10;10.85;;;;;;;-1.30;88.55;101631.67;1466172;89;21418;-87
2022/12/28 02:35:25;;;;;;;19.23;10.85;;;;;;;-1.33;88.66;101628.31;1450446;89;21544;-87
2022/12/28 02:38:12;;;;;;;21.52;10.70;;;;;;;-1.37;88.57;101628.41;1447804;90;21537;-86
2022/12/28 02:40:59;;;;;;;26.83;13.97;;;;;;;-1.40;88.54;101636.28;1447309;90;21641;-88
2022/12/28 02:43:26;;;;;;;18.87;11.48;;;;;;;-1.43;88.61;101636.37;1452078;90;22893;-88
2022/12/28 02:51:48;;;;;;;22.90;10.65;;;;;;;-1.50;88.75;101636.11;1451110;90;21500;-88
2022/12/28 02:58:11;;;;;;;28.45;12.63;;;;;;;-1.54;89.35;101640.99;1443294;90;21633;-89
2022/12/28 03:01:14;;;;;;;27.60;13.22;;;;;;;-1.58;89.47;101632.89;1441553;90;21560;-87
2022/12/28 03:03:52;;;;;;;22.10;11.73;;;;;;;-1.58;89.50;101634.19;1446303;90;22499;-87
2022/12/28 03:10:27;;;;;;;24.92;12.05;;;;;;;-1.60;89.68;101638.56;1452705;90;22596;-86
2022/12/28 03:13:41;;;;;;;23.80;10.45;;;;;;;-1.61;89.74;101635.58;1450232;90;21723;-90
2022/12/28 03:15:36;;;;;;;19.67;10.65;;;;;;;-1.63;89.73;101629.56;1458705;90;21471;-88
2022/12/28 03:32:54;;;;;;;15.70;9.78;;;;;;;-1.70;90.13;101635.78;1449572;90;21442;-91
2022/12/28 03:35:25;;;;;;;20.85;11.48;;;;;;;-1.70;90.07;101637.09;1456132;90;22351;-89
2022/12/28 03:38:03;;;;;;;13.68;7.92;;;;;;;-1.72;90.12;101625.91;1455762;90;21523;-93
2022/12/28 03:40:49;;;;;;;16.55;10.35;;;;;;;-1.74;90.59;101623.34;1457352;90;21434;-88
2022/12/28 03:43:41;;;;;;;19.10;11.10;;;;;;;-1.74;90.43;101623.34;1453918;90;22381;-93
2022/12/28 03:46:29;;;;;;;18.25;10.68;;;;;;;-1.74;90.51;101626.39;1449404;90;21596;-92
2022/12/28 03:48:58;;;;;;;18.10;10.55;;;;;;;-1.74;90.30;101623.34;1460200;89;21633;-86
2022/12/28 03:51:26;;;;;;;19.12;9.48;;;;;;;-1.75;90.39;101629.89;1460367;89;22314;-86
2022/12/28 03:53:53;;;;;;;15.15;10.23;;;;;;;-1.74;90.24;101627.23;1469289;89;21426;-87
2022/12/28 03:56:24;;;;;;;20.20;10.58;;;;;;;-1.75;90.23;101628.14;1460040;89;21457;-88
2022/12/28 03:58:51;;;;;;;19.20;11.45;;;;;;;-1.74;90.50;101632.88;1459677;89;21530;-88
2022/12/28 04:01:18;;;;;;;19.15;10.10;;;;;;;-1.75;90.86;101637.67;1465054;89;21596;-87
2022/12/28 04:03:45;;;;;;;19.52;10.05;;;;;;;-1.83;91.57;101633.52;1465623;89;21441;-91
2022/12/28 04:06:18;;;;;;;17.37;9.75;;;;;;;-1.86;91.15;101636.19;1466948;89;21507;-90
2022/12/28 04:08:46;;;;;;;16.45;9.18;;;;;;;-1.88;90.84;101634.07;1461887;89;22336;-89
2022/12/28 04:11:12;;;;;;;20.12;11.12;;;;;;;-1.90;90.92;101627.20;1463784;89;21563;-90
2022/12/28 04:13:38;;;;;;;21.73;10.75;;;;;;;-1.94;90.92;101629.04;1462937;89;21331;-91
2022/12/28 04:16:10;;;;;;;22.85;11.30;;;;;;;-1.96;90.65;101625.63;1451859;89;21397;-92
2022/12/28 04:18:36;;;;;;;42.95;16.77;;;;;;;-2.00;90.55;101622.70;1462003;89;21575;-92
2022/12/28 04:21:03;;;;;;;26.17;13.28;;;;;;;-2.02;90.61;101617.14;1463246;89;21522;-90
2022/12/28 04:23:31;;;;;;;33.28;15.18;;;;;;;-2.04;90.66;101617.20;1462581;89;21492;-90
2022/12/28 04:26:04;;;;;;;35.13;16.25;;;;;;;-2.07;90.73;101611.64;1461761;89;21478;-88
2022/12/28 04:28:32;;;;;;;34.38;15.40;;;;;;;-2.08;91.01;101623.34;1461292;89;21543;-88
2022/12/28 04:31:00;;;;;;;32.98;15.10;;;;;;;-2.13;90.89;101623.47;1449367;89;21486;-92
2022/12/28 04:33:27;;;;;;;26.87;14.47;;;;;;;-2.18;90.81;101625.31;1458021;89;21382;-91
2022/12/28 04:36:00;;;;;;;27.20;14.80;;;;;;;-2.23;91.43;101628.91;1449495;89;21455;-91
2022/12/28 04:38:26;;;;;;;27.95;14.43;;;;;;;-2.24;91.23;101633.25;1461902;88;21553;-92
2022/12/28 04:40:52;;;;;;;35.43;16.62;;;;;;;-2.26;91.13;101620.75;1456162;89;21589;-92
2022/12/28 04:43:18;;;;;;;30.82;15.58;;;;;;;-2.29;91.31;101610.00;1460695;89;21397;-88
2022/12/28 04:45:54;;;;;;;25.25;12.43;;;;;;;-2.32;91.21;101611.38;1474600;89;23145;-92
2022/12/28 04:48:20;;;;;;;28.83;15.03;;;;;;;-2.35;91.33;101607.56;1459394;89;21634;-89
2022/12/28 04:50:47;;;;;;;27.05;14.63;;;;;;;-2.39;91.42;101609.80;1443493;89;21397;-91
2022/12/28 04:53:13;;;;;;;28.02;15.20;;;;;;;-2.37;91.57;101613.22;1456581;89;22320;-91
2022/12/28 04:55:39;;;;;;;27.27;13.20;;;;;;;-2.37;91.63;101611.92;1457178;89;21543;-89
2022/12/28 04:58:06;;;;;;;24.98;13.35;;;;;;;-2.33;91.74;101613.98;1468273;89;21456;-90
2022/12/28 05:00:32;;;;;;;24.98;12.80;;;;;;;-2.31;91.91;101620.84;1459482;89;21433;-87
2022/12/28 05:02:59;;;;;;;22.50;11.68;;;;;;;-2.29;92.05;101620.83;1463775;89;22506;-89
2022/12/28 05:05:27;;;;;;;20.37;11.10;;;;;;;-2.28;92.19;101603.91;1461840;89;21508;-91
2022/12/28 05:07:54;;;;;;;25.00;12.80;;;;;;;-2.27;92.01;101599.16;1469350;89;21515;-89
2022/12/28 05:10:21;;;;;;;21.90;11.78;;;;;;;-2.28;91.72;101596.14;1460081;89;22569;-89
2022/12/28 05:12:47;;;;;;;20.10;10.90;;;;;;;-2.29;91.72;101602.22;1462064;89;21397;-87
2022/12/28 05:15:13;;;;;;;23.15;11.40;;;;;;;-2.30;92.09;101599.69;1464043;89;21559;-91
2022/12/28 05:17:39;;;;;;;25.00;13.03;;;;;;;-2.30;91.87;101587.56;1460748;89;22484;-93
2022/12/28 05:20:06;;;;;;;25.52;13.68;;;;;;;-2.28;92.18;101590.95;1447626;89;21389;-86
2022/12/28 05:22:32;;;;;;;19.92;12.23;;;;;;;-2.25;92.51;101591.77;1467251;89;21485;-90
2022/12/28 05:24:59;;;;;;;18.80;10.18;;;;;;;-2.24;92.37;101596.94;1454756;89;21478;-92
2022/12/28 05:27:25;;;;;;;25.20;12.75;;;;;;;-2.22;92.30;101605.96;1459732;89;21721;-92
2022/12/28 05:29:53;;;;;;;19.48;10.80;;;;;;;-2.21;92.65;101601.20;1460722;88;21566;-89
2022/12/28 05:32:19;;;;;;;20.05;11.80;;;;;;;-2.19;92.42;101604.59;1456586;89;21522;-86
2022/12/28 05:34:45;;;;;;;23.98;12.23;;;;;;;-2.17;92.64;101602.37;1464807;89;22321;-86
2022/12/28 05:37:11;;;;;;;18.87;10.63;;;;;;;-2.14;92.54;101607.92;1452620;89;21398;-84
2022/12/28 05:39:37;;;;;;;18.50;11.90;;;;;;;-2.12;92.65;101614.78;1464569;89;21500;-91
2022/12/28 05:42:05;;;;;;;18.42;9.43;;;;;;;-2.11;92.69;101615.63;1460824;89;21418;-87
2022/12/28 05:44:32;;;;;;;19.80;12.07;;;;;;;-2.09;92.60;101619.05;1449919;89;22228;-82
2022/12/28 05:46:58;;;;;;;18.98;11.97;;;;;;;-2.08;92.76;101610.36;1465668;89;21427;-83
2022/12/28 05:49:24;;;;;;;23.20;13.62;;;;;;;-2.08;93.10;101615.55;1455875;89;21648;-85
2022/12/28 05:51:51;;;;;;;19.92;13.05;;;;;;;-2.07;92.95;101614.69;1451256;90;21493;-85
2022/12/28 05:54:17;;;;;;;17.37;10.48;;;;;;;-2.09;92.94;101619.89;1444045;90;21619;-85
2022/12/28 05:56:44;;;;;;;18.32;10.08;;;;;;;-2.08;92.73;101623.34;1453044;90;21434;-84
2022/12/28 05:59:12;;;;;;;16.12;9.93;;;;;;;-2.08;92.84;101627.23;1453952;90;22551;-86
2022/12/28 06:01:41;;;;;;;15.93;8.95;;;;;;;-2.09;93.04;101625.08;1446130;90;21420;-86
2022/12/28 06:04:17;;;;;;;23.92;11.88;;;;;;;-2.07;93.23;101622.47;1449631;89;21478;-86
2022/12/28 06:06:46;;;;;;;22.52;10.53;;;;;;;-2.06;93.09;101622.86;1452710;90;21442;-86
2022/12/28 06:09:13;;;;;;;32.58;14.55;;;;;;;-2.07;93.21;101619.87;1459573;90;21486;-86
2022/12/28 06:11:39;;;;;;;35.60;18.15;;;;;;;-2.07;93.06;101627.66;1455669;89;21376;-84
2022/12/28 06:14:06;;;;;;;35.17;18.37;;;;;;;-2.06;92.94;101621.56;1448710;90;22469;-86
2022/12/28 06:16:36;;;;;;;32.55;16.52;;;;;;;-2.06;92.97;101621.56;1452007;90;21515;-85
2022/12/28 06:19:09;;;;;;;29.23;16.20;;;;;;;-2.06;92.83;101626.76;1452361;90;21642;-87
2022/12/28 06:21:38;;;;;;;26.68;15.18;;;;;;;-2.06;92.74;101634.54;1445301;90;21463;-88
2022/12/28 06:24:06;;;;;;;22.25;13.62;;;;;;;-2.06;92.71;101635.84;1444547;90;21442;-87
2022/12/28 06:26:35;;;;;;;23.77;14.00;;;;;;;-2.05;92.66;101629.74;1446141;90;21531;-86
2022/12/28 06:29:02;;;;;;;26.60;13.35;;;;;;;-2.06;92.68;101631.49;1458843;90;21478;-87
2022/12/28 06:31:32;;;;;;;36.55;18.70;;;;;;;-2.08;92.64;101631.12;1446027;90;22530;-85
2022/12/28 06:34:01;;;;;;;32.45;16.80;;;;;;;-2.09;92.66;101625.53;1455449;90;22308;-84
2022/12/28 06:36:31;;;;;;;27.02;16.23;;;;;;;-2.07;92.67;101631.55;1455691;90;21700;-86
2022/12/28 06:39:00;;;;;;;27.65;16.00;;;;;;;-2.09;92.76;101625.08;1461755;90;21612;-86
2022/12/28 06:41:28;;;;;;;22.67;13.53;;;;;;;-2.08;92.67;101630.67;1450704;89;21604;-88
2022/12/28 06:43:57;;;;;;;32.42;15.18;;;;;;;-2.08;92.61;101634.56;1453357;89;21441;-90
2022/12/28 06:46:26;;;;;;;23.25;13.05;;;;;;;-2.07;92.59;101628.50;1451493;90;21391;-89
2022/12/28 06:48:52;;;;;;;25.50;14.45;;;;;;;-2.06;92.63;101631.95;1447422;90;21382;-85
2022/12/28 06:51:26;;;;;;;23.80;14.70;;;;;;;-2.04;92.62;101635.36;1447803;89;21604;-85
2022/12/28 06:53:54;;;;;;;29.05;16.37;;;;;;;-2.01;92.72;101640.47;1459686;89;22367;-87
2022/12/28 06:56:24;;;;;;;30.85;17.27;;;;;;;-1.97;92.90;101642.54;1458213;90;21987;-86
2022/12/28 06:58:52;;;;;;;26.68;17.02;;;;;;;-1.95;93.10;101644.20;1450978;90;22277;-85
2022/12/28 07:01:26;;;;;;;21.05;13.40;;;;;;;-1.93;93.12;101645.00;1453320;90;21435;-85
2022/12/28 07:03:55;;;;;;;23.98;14.43;;;;;;;-1.90;93.04;101647.97;1460455;89;22424;-86
2022/12/28 07:06:26;;;;;;;28.50;16.50;;;;;;;-1.89;93.18;101653.13;1452807;90;22599;-85
2022/12/28 07:09:01;;;;;;;54.30;29.25;;;;;;;-1.84;93.15;101662.97;1459809;90;21715;-86
2022/12/28 07:11:28;;;;;;;63.33;34.92;;;;;;;-1.80;93.21;101661.59;1453726;89;21472;-82
2022/12/28 07:13:55;;;;;;;39.08;21.20;;;;;;;-1.74;93.33;101660.13;1451976;90;21649;-82
2022/12/28 07:16:23;;;;;;;27.13;16.35;;;;;;;-1.68;93.30;101661.27;1454465;90;22352;-81
2022/12/28 07:18:49;;;;;;;33.58;15.35;;;;;;;-1.63;93.34;101664.61;1450294;90;21641;-80
2022/12/28 07:21:24;;;;;;;26.20;14.60;;;;;;;-1.63;93.13;101663.30;1446518;90;21464;-80
2022/12/28 07:23:52;;;;;;;24.02;13.98;;;;;;;-1.61;93.35;101670.63;1451442;90;21641;-79
2022/12/28 07:26:22;;;;;;;22.40;14.13;;;;;;;-1.57;93.18;101670.94;1451491;90;21449;-80
2022/12/28 07:28:52;;;;;;;23.90;13.13;;;;;;;-1.54;93.33;101663.52;1451519;90;21493;-80
2022/12/28 07:31:22;;;;;;;22.37;13.20;;;;;;;-1.49;93.41;101662.50;1451641;89;22463;-80
2022/12/28 07:33:51;;;;;;;20.50;12.63;;;;;;;-1.43;93.61;101663.63;1454340;90;22314;-80
2022/12/28 07:36:19;;;;;;;21.42;11.83;;;;;;;-1.37;93.62;101662.17;1447013;90;23222;-80
2022/12/28 07:38:46;;;;;;;27.37;13.05;;;;;;;-1.30;93.72;101668.49;1458124;89;21454;-80
2022/12/28 07:41:25;;;;;;;24.10;11.70;;;;;;;-1.27;93.72;101658.02;1452616;90;21957;-79
2022/12/28 07:43:52;;;;;;;19.67;10.17;;;;;;;-1.25;93.69;101656.23;1448263;90;21471;-80
2022/12/28 07:46:26;;;;;;;20.95;10.78;;;;;;;-1.21;93.66;101656.55;1446216;89;21735;-80
2022/12/28 07:48:52;;;;;;;16.20;10.67;;;;;;;-1.16;93.83;101661.17;1445861;89;22447;-81
2022/12/28 07:51:26;;;;;;;17.80;11.63;;;;;;;-1.06;93.87;101675.62;1441666;89;21892;-80
2022/12/28 07:53:54;;;;;;;19.63;12.13;;;;;;;-1.03;93.90;101670.34;1463731;89;24736;-81
2022/12/28 07:56:22;;;;;;;21.53;13.30;;;;;;;-0.98;93.69;101668.47;1456857;89;21838;-81
2022/12/28 07:58:53;;;;;;;19.20;11.80;;;;;;;-0.95;93.59;101672.28;1385259;89;21555;-80
2022/12/28 08:01:23;;;;;;;17.27;10.28;;;;;;;-0.88;93.68;101668.20;1446470;89;21618;-80
2022/12/28 08:03:56;;;;;;;29.50;11.30;;;;;;;-0.86;93.74;101665.09;1456724;89;21544;-81
2022/12/28 08:06:23;;;;;;;15.93;10.23;;;;;;;-0.81;93.60;101669.27;1379184;90;22396;-81
2022/12/28 08:08:54;;;;;;;15.40;11.00;;;;;;;-0.77;93.54;101668.30;1386638;89;21463;-80
2022/12/28 08:11:23;;;;;;;19.80;10.55;;;;;;;-0.66;93.85;101675.79;1384236;88;21801;-81
2022/12/28 08:13:52;;;;;;;23.30;11.07;;;;;;;-0.58;93.80;101671.19;1435383;89;22491;-80
2022/12/28 08:16:21;;;;;;;17.30;10.37;;;;;;;-0.51;93.72;101666.67;1455996;89;21617;-80
2022/12/28 08:18:48;;;;;;;20.67;8.73;;;;;;;-0.46;92.95;101673.44;1385352;89;21514;-81
2022/12/28 08:21:19;;;;;;;16.13;9.40;;;;;;;-0.38;92.92;101677.55;1392456;89;21790;-79
2022/12/28 08:23:46;;;;;;;14.07;8.53;;;;;;;-0.35;92.62;101677.45;1384921;89;21568;-81
2022/12/28 08:26:19;;;;;;;13.93;9.10;;;;;;;-0.26;92.78;101686.26;1387114;88;21673;-78
2022/12/28 08:28:47;;;;;;;15.47;8.03;;;;;;;-0.21;91.91;101680.47;1419236;89;21597;-80
2022/12/28 08:31:24;;;;;;;15.67;9.37;;;;;;;-0.18;91.75;101684.27;1385416;88;21748;-81
2022/12/28 08:33:51;;;;;;;16.10;9.37;;;;;;;-0.09;91.74;101687.88;1545965;89;21762;-80
2022/12/28 08:36:17;;;;;;;23.63;13.00;;;;;;;-0.02;91.30;101684.20;1386581;89;22431;-81
2022/12/28 08:38:44;;;;;;;21.47;13.27;;;;;;;0.07;90.91;101688.72;1387816;89;21560;-81
2022/12/28 08:41:18;;;;;;;24.87;14.17;;;;;;;0.12;90.67;101690.27;1386876;89;21575;-82
2022/12/28 08:43:44;;;;;;;19.47;12.00;;;;;;;0.17;90.38;101681.87;1383327;89;21514;-81
2022/12/28 08:46:17;;;;;;;19.03;12.10;;;;;;;0.25;90.79;101685.95;1386937;89;21428;-79
2022/12/28 08:48:46;;;;;;;22.03;11.70;;;;;;;0.29;90.42;101681.91;1390249;89;21686;-83
2022/12/28 08:51:19;;;;;;;19.23;10.63;;;;;;;0.40;91.01;101680.22;1545546;88;21692;-81
2022/12/28 08:57:20;;;;;;;23.10;13.57;;;;;;;0.58;90.60;101676.16;1402505;88;21479;-81
2022/12/28 08:59:46;;;;;;;23.63;12.93;;;;;;;0.67;89.65;101679.75;1379131;90;22414;-82
2022/12/28 09:02:13;;;;;;;24.80;14.10;;;;;;;0.72;89.31;101678.27;1378428;90;22592;-79
2022/12/28 09:04:39;;;;;;;21.53;12.60;;;;;;;0.75;88.87;101673.81;1379408;90;21583;-81
2022/12/28 09:07:06;;;;;;;26.03;15.03;;;;;;;0.82;89.01;101675.28;1378766;90;22375;-81
2022/12/28 09:09:33;;;;;;;26.33;13.13;;;;;;;0.93;88.79;101675.37;1379745;90;21493;-81
2022/12/28 09:12:02;;;;;;;20.97;12.07;;;;;;;0.99;87.71;101667.32;1526282;90;21693;-81
2022/12/28 09:14:28;;;;;;;23.70;12.20;;;;;;;1.01;87.26;101665.52;1379476;89;21648;-80
2022/12/28 09:16:55;;;;;;;22.63;13.27;;;;;;;1.13;88.07;101667.66;1373169;90;21611;-81
2022/12/28 09:19:21;;;;;;;20.03;12.23;;;;;;;1.28;88.53;101671.45;1379642;90;21570;-82
2022/12/28 09:21:51;;;;;;;23.70;13.03;;;;;;;1.35;86.49;101669.88;1379212;90;21620;-82
2022/12/28 09:24:16;;;;;;;27.83;15.80;;;;;;;1.49;86.71;101663.26;1377425;89;21690;-80
2022/12/28 09:26:42;;;;;;;20.17;12.63;;;;;;;1.51;85.29;101664.05;1379395;90;22499;-81
2022/12/28 09:29:12;;;;;;;19.50;12.70;;;;;;;1.56;85.39;101668.19;1383667;90;21669;-83
2022/12/28 09:31:40;;;;;;;18.77;11.00;;;;;;;1.60;85.29;101666.30;1379592;90;21728;-83
2022/12/28 09:34:10;;;;;;;20.57;11.90;;;;;;;1.67;85.03;101667.78;1378157;90;22345;-82
2022/12/28 09:36:49;;;;;;;20.25;11.65;;;;;;;1.77;84.93;101668.26;1535723;90;22494;-81
2022/12/28 09:39:18;;;;;;;19.50;10.30;;;;;;;1.92;84.00;101639.38;1379576;90;21324;-83
2022/12/28 09:42:07;;;;;;;15.23;8.77;;;;;;;2.00;83.43;101645.98;1376403;90;21999;-81
2022/12/28 09:44:50;;;;;;;18.47;10.13;;;;;;;2.00;83.43;101645.98;1378520;90;21898;-82
2022/12/28 09:47:40;;;;;;;16.87;10.13;;;;;;;2.13;81.72;101642.42;1489435;91;23042;-82
2022/12/28 09:50:15;;;;;;;22.13;11.90;;;;;;;2.48;79.83;101637.47;1510313;91;22337;-82
2022/12/28 09:52:52;;;;;;;15.93;9.97;;;;;;;2.92;77.34;101629.42;1412779;91;21515;-82
2022/12/28 09:55:20;;;;;;;16.60;9.03;;;;;;;3.44;78.25;101629.64;1429769;91;22460;-81
2022/12/28 09:57:53;;;;;;;24.03;11.13;;;;;;;3.81;73.94;101628.72;1430391;91;22521;-82
2022/12/28 10:00:33;;;;;;;24.33;12.57;;;;;;;4.12;73.89;101629.00;1432355;91;21670;-81
2022/12/28 10:03:02;;;;;;;18.30;10.70;;;;;;;4.33;73.97;101625.28;1367762;93;22323;-82
2022/12/28 10:05:29;;;;;;;19.00;11.43;;;;;;;4.70;73.39;101621.60;1377271;91;21405;-81
2022/12/28 10:08:02;;;;;;;17.77;10.23;;;;;;;4.96;73.11;101618.06;1356807;91;21434;-81
2022/12/28 10:10:29;;;;;;;17.93;11.10;;;;;;;5.29;72.89;101625.02;1385808;91;21464;-82
2022/12/28 10:12:59;;;;;;;15.07;10.70;;;;;;;5.52;69.93;101625.06;1361262;91;21390;-82
2022/12/28 10:15:27;;;;;;;14.78;10.40;;;;;;;5.80;70.77;101630.45;1506068;91;21376;-83
2022/12/28 10:17:53;;;;;;;18.00;10.70;;;;;;;5.86;68.49;101623.53;1446730;91;21346;-81
2022/12/28 10:20:22;;;;;;;21.10;10.50;;;;;;;5.93;67.30;101615.29;1355915;91;22213;-80
2022/12/28 10:22:52;;;;;;;18.20;11.17;;;;;;;5.99;67.67;101611.89;1353954;91;22346;-80
2022/12/28 10:25:22;;;;;;;19.20;12.17;;;;;;;5.97;68.20;101612.92;1525411;89;21457;-81
2022/12/28 10:27:52;;;;;;;16.67;10.35;;;;;;;5.95;67.91;101609.52;1481395;89;21405;-80
2022/12/28 10:30:25;;;;;;;14.55;11.00;;;;;;;6.02;68.91;101616.13;1372812;90;22397;-80
2022/12/28 10:32:57;;;;;;;14.47;9.37;;;;;;;6.02;68.14;101617.45;1374739;90;22220;-81
2022/12/28 10:35:37;;;;;;;18.43;10.07;;;;;;;6.03;65.30;101619.13;1534573;88;21398;-80
2022/12/28 10:38:22;;;;;;;17.23;9.73;;;;;;;5.97;65.19;101611.12;1531120;90;22366;-81
2022/12/28 10:41:05;;;;;;;21.13;11.60;;;;;;;6.04;64.33;101607.66;1527820;90;22205;-81
2022/12/28 10:43:35;;;;;;;16.57;10.70;;;;;;;6.24;65.93;101596.86;1534557;89;21406;-78
2022/12/28 10:46:05;;;;;;;18.20;11.90;;;;;;;6.38;63.84;101597.80;1367955;90;21368;-82
2022/12/28 10:48:37;;;;;;;16.60;11.13;;;;;;;6.43;66.71;101603.63;1375832;90;21519;-81
2022/12/28 10:51:14;;;;;;;16.60;11.27;;;;;;;6.60;66.78;101603.45;1527369;90;22287;-81
2022/12/28 10:53:45;;;;;;;17.30;11.43;;;;;;;6.53;64.43;101596.41;1383948;89;21530;-81
2022/12/28 10:56:28;;;;;;;15.35;10.63;;;;;;;6.45;63.64;101592.09;1533641;90;22196;-80
2022/12/28 10:59:12;;;;;;;19.40;13.13;;;;;;;6.46;65.18;101583.72;1538267;89;22320;-80
2022/12/28 11:01:40;;;;;;;20.07;13.80;;;;;;;6.42;65.60;101575.66;1382497;89;21383;-81
2022/12/28 11:04:20;;;;;;;18.13;10.53;;;;;;;6.46;65.62;101576.67;1374318;89;21495;-81
2022/12/28 11:06:57;;;;;;;24.35;12.13;;;;;;;6.37;65.09;101569.34;1462292;90;22862;-81
2022/12/28 11:09:30;;;;;;;18.60;12.13;;;;;;;6.18;65.14;101570.90;1453735;90;22380;-80
2022/12/28 11:12:22;;;;;;;22.03;12.67;;;;;;;6.26;66.35;101567.35;1449713;90;21633;-80
2022/12/28 11:14:58;;;;;;;22.53;11.57;;;;;;;6.26;65.69;101576.55;1446401;89;21571;-80
2022/12/28 11:17:27;;;;;;;21.43;12.13;;;;;;;6.20;64.92;101569.03;1439227;90;21670;-80
2022/12/28 11:19:58;;;;;;;19.80;13.07;;;;;;;6.00;64.94;101559.70;1440814;90;21390;-81
2022/12/28 11:22:28;;;;;;;22.00;13.08;;;;;;;6.08;66.63;101558.78;1452246;89;21531;-80
2022/12/28 11:25:07;;;;;;;19.63;12.47;;;;;;;6.25;66.58;101557.78;1445495;90;21434;-80
2022/12/28 11:27:34;;;;;;;27.50;13.10;;;;;;;6.44;66.04;101556.66;1444750;90;22411;-80
2022/12/28 11:37:13;;;;;;;17.37;11.63;;;;;;;6.51;65.28;101552.73;1379162;90;21524;-80
2022/12/28 11:39:49;;;;;;;23.77;12.93;;;;;;;6.34;66.29;101553.75;1533324;89;21412;-81
2022/12/28 11:42:37;;;;;;;19.40;11.67;;;;;;;6.16;66.33;101553.08;1533664;90;21316;-81
2022/12/28 11:45:18;;;;;;;19.73;11.83;;;;;;;6.11;66.96;101549.88;1374613;90;21368;-80
2022/12/28 11:47:44;;;;;;;24.35;13.95;;;;;;;5.94;67.00;101546.93;1402401;90;21457;-81
2022/12/28 11:50:40;;;;;;;21.83;12.70;;;;;;;5.91;67.51;101547.55;1377809;90;21513;-80
2022/12/28 11:53:36;;;;;;;18.07;12.30;;;;;;;5.92;67.28;101553.17;1374479;89;21560;-81
2022/12/28 11:56:13;;;;;;;19.03;11.30;;;;;;;5.89;67.44;101539.75;1527526;90;21443;-81
2022/12/28 11:58:45;;;;;;;17.60;11.17;;;;;;;5.81;67.50;101544.16;1424372;89;22308;-82
2022/12/28 12:01:33;;;;;;;18.33;12.03;;;;;;;5.72;67.66;101535.95;1533501;90;21399;-81
2022/12/28 12:04:10;;;;;;;23.13;13.03;;;;;;;5.65;67.60;101536.78;1382471;89;21345;-81
2022/12/28 12:06:47;;;;;;;21.53;12.17;;;;;;;5.60;67.38;101530.94;1533351;89;21530;-81
2022/12/28 12:09:29;;;;;;;22.90;14.10;;;;;;;5.67;68.10;101529.66;1393248;90;21360;-79